sensor_id;sensor_type;location;lat;lon;timestamp;temperature;humidity
75113;DHT22;63692;47.338;8.520;2023-07-24T04:37:22;20.20;99.90
75113;DHT22;63692;47.338;8.520;2023-07-24T04:49:48;20.90;99.90
75113;DHT22;63692;47.338;8.520;2023-07-24T04:52:13;20.80;99.90
75113;DHT22;63692;47.338;8.520;2023-07-24T04:57:08;20.60;99.90
75113;DHT22;63692;47.338;8.520;2023-07-24T04:59:34;20.50;99.90
75113;DHT22;63692;47.338;8.520;2023-07-24T05:04:27;20.40;99.90
75113;DHT22;63692;47.338;8.520;2023-07-24T05:06:52;20.40;99.90
75113;DHT22;63692;47.338;8.520;2023-07-24T05:09:18;20.30;99.90
75113;DHT22;63692;47.338;8.520;2023-07-24T05:14:12;20.40;99.90
75113;DHT22;63692;47.338;8.520;2023-07-24T05:19:05;20.30;99.90
75113;DHT22;63692;47.338;8.520;2023-07-24T05:24:04;20.20;99.90
75113;DHT22;63692;47.338;8.520;2023-07-24T05:26:29;20.20;99.90
75113;DHT22;63692;47.338;8.520;2023-07-24T05:28:55;20.10;99.90
75113;DHT22;63692;47.338;8.520;2023-07-24T05:31:20;20.10;99.90
75113;DHT22;63692;47.338;8.520;2023-07-24T05:33:46;20.10;99.90
75113;DHT22;63692;47.338;8.520;2023-07-24T05:36:11;20.00;99.90
75113;DHT22;63692;47.338;8.520;2023-07-24T05:41:04;20.00;99.90
75113;DHT22;63692;47.338;8.520;2023-07-24T05:43:30;19.90;99.90
75113;DHT22;63692;47.338;8.520;2023-07-24T05:45:57;20.00;99.90
75113;DHT22;63692;47.338;8.520;2023-07-24T05:48:23;20.00;99.90
75113;DHT22;63692;47.338;8.520;2023-07-24T05:50:49;20.10;99.90
75113;DHT22;63692;47.338;8.520;2023-07-24T05:53:15;20.10;99.90
75113;DHT22;63692;47.338;8.520;2023-07-24T05:55:41;20.00;99.90
75113;DHT22;63692;47.338;8.520;2023-07-24T05:58:08;20.00;99.90
75113;DHT22;63692;47.338;8.520;2023-07-24T06:00:34;20.00;99.90
75113;DHT22;63692;47.338;8.520;2023-07-24T06:03:00;19.90;99.90
75113;DHT22;63692;47.338;8.520;2023-07-24T06:05:26;20.00;99.90
75113;DHT22;63692;47.338;8.520;2023-07-24T06:07:51;20.00;99.90
75113;DHT22;63692;47.338;8.520;2023-07-24T06:17:39;20.10;99.90
75113;DHT22;63692;47.338;8.520;2023-07-24T06:24:59;20.30;99.90
75113;DHT22;63692;47.338;8.520;2023-07-24T06:27:25;20.30;99.90
75113;DHT22;63692;47.338;8.520;2023-07-24T06:29:50;20.20;99.90
75113;DHT22;63692;47.338;8.520;2023-07-24T06:32:16;20.10;99.90
75113;DHT22;63692;47.338;8.520;2023-07-24T06:34:41;20.20;99.90
75113;DHT22;63692;47.338;8.520;2023-07-24T06:37:07;20.20;99.90
75113;DHT22;63692;47.338;8.520;2023-07-24T06:39:32;20.00;99.90
75113;DHT22;63692;47.338;8.520;2023-07-24T06:41:58;20.10;99.90
75113;DHT22;63692;47.338;8.520;2023-07-24T06:44:24;20.20;99.90
75113;DHT22;63692;47.338;8.520;2023-07-24T06:46:50;20.10;99.90
75113;DHT22;63692;47.338;8.520;2023-07-24T06:49:15;20.10;99.90
75113;DHT22;63692;47.338;8.520;2023-07-24T06:51:41;20.00;99.90
75113;DHT22;63692;47.338;8.520;2023-07-24T06:54:06;20.00;99.90
75113;DHT22;63692;47.338;8.520;2023-07-24T06:56:32;20.00;99.90
75113;DHT22;63692;47.338;8.520;2023-07-24T06:59:01;19.90;99.90
75113;DHT22;63692;47.338;8.520;2023-07-24T07:01:26;20.20;99.90
75113;DHT22;63692;47.338;8.520;2023-07-24T07:03:52;20.20;99.90
75113;DHT22;63692;47.338;8.520;2023-07-24T07:13:48;20.50;99.90
75113;DHT22;63692;47.338;8.520;2023-07-24T07:16:13;20.50;99.90
75113;DHT22;63692;47.338;8.520;2023-07-24T07:18:50;20.50;99.90
75113;DHT22;63692;47.338;8.520;2023-07-24T07:26:16;20.40;99.90
75113;DHT22;63692;47.338;8.520;2023-07-24T07:28:41;20.40;99.90
75113;DHT22;63692;47.338;8.520;2023-07-24T07:31:08;20.40;99.90
75113;DHT22;63692;47.338;8.520;2023-07-24T07:33:33;20.40;99.90
75113;DHT22;63692;47.338;8.520;2023-07-24T07:35:59;20.60;99.90
75113;DHT22;63692;47.338;8.520;2023-07-24T07:38:24;20.60;99.90
75113;DHT22;63692;47.338;8.520;2023-07-24T07:40:50;20.60;99.90
75113;DHT22;63692;47.338;8.520;2023-07-24T07:43:15;20.60;99.90
75113;DHT22;63692;47.338;8.520;2023-07-24T07:45:41;20.60;99.90
75113;DHT22;63692;47.338;8.520;2023-07-24T07:48:06;20.60;99.90
75113;DHT22;63692;47.338;8.520;2023-07-24T07:50:32;20.60;99.90
75113;DHT22;63692;47.338;8.520;2023-07-24T07:52:57;20.70;99.90
75113;DHT22;63692;47.338;8.520;2023-07-24T07:55:25;20.70;99.90
75113;DHT22;63692;47.338;8.520;2023-07-24T07:57:51;20.80;99.90
75113;DHT22;63692;47.338;8.520;2023-07-24T08:00:16;20.80;99.90
75113;DHT22;63692;47.338;8.520;2023-07-24T08:02:42;20.80;99.90
75113;DHT22;63692;47.338;8.520;2023-07-24T08:05:08;20.80;99.90
75113;DHT22;63692;47.338;8.520;2023-07-24T08:07:34;20.80;99.90
75113;DHT22;63692;47.338;8.520;2023-07-24T08:10:00;20.80;99.90
75113;DHT22;63692;47.338;8.520;2023-07-24T08:12:25;20.90;99.90
75113;DHT22;63692;47.338;8.520;2023-07-24T08:14:51;21.00;99.90
75113;DHT22;63692;47.338;8.520;2023-07-24T08:17:16;21.00;99.90
75113;DHT22;63692;47.338;8.520;2023-07-24T08:19:42;21.00;99.90
75113;DHT22;63692;47.338;8.520;2023-07-24T08:22:08;21.00;99.90
75113;DHT22;63692;47.338;8.520;2023-07-24T08:24:34;21.10;99.90
75113;DHT22;63692;47.338;8.520;2023-07-24T08:27:00;21.30;99.90
75113;DHT22;63692;47.338;8.520;2023-07-24T08:29:26;21.40;99.90
75113;DHT22;63692;47.338;8.520;2023-07-24T08:31:51;21.50;99.90
75113;DHT22;63692;47.338;8.520;2023-07-24T08:34:17;21.50;99.90
75113;DHT22;63692;47.338;8.520;2023-07-24T08:36:42;21.50;99.90
75113;DHT22;63692;47.338;8.520;2023-07-24T08:39:08;21.50;99.90
75113;DHT22;63692;47.338;8.520;2023-07-24T08:41:33;21.60;99.90
75113;DHT22;63692;47.338;8.520;2023-07-24T08:44:00;21.60;99.90
75113;DHT22;63692;47.338;8.520;2023-07-24T08:46:27;21.60;99.90
75113;DHT22;63692;47.338;8.520;2023-07-24T08:48:54;21.40;99.90
75113;DHT22;63692;47.338;8.520;2023-07-24T08:51:20;21.40;99.90
75113;DHT22;63692;47.338;8.520;2023-07-24T08:53:47;21.40;99.90
75113;DHT22;63692;47.338;8.520;2023-07-24T08:56:13;21.40;99.90
75113;DHT22;63692;47.338;8.520;2023-07-24T08:58:40;21.50;99.90
75113;DHT22;63692;47.338;8.520;2023-07-24T09:01:06;21.50;99.90
75113;DHT22;63692;47.338;8.520;2023-07-24T09:03:35;21.50;99.90
75113;DHT22;63692;47.338;8.520;2023-07-24T09:06:01;21.60;99.90
75113;DHT22;63692;47.338;8.520;2023-07-24T09:10:55;21.70;99.90
75113;DHT22;63692;47.338;8.520;2023-07-24T09:13:21;21.70;99.90
75113;DHT22;63692;47.338;8.520;2023-07-24T09:15:46;21.90;99.90
75113;DHT22;63692;47.338;8.520;2023-07-24T09:18:12;22.00;99.90
75113;DHT22;63692;47.338;8.520;2023-07-24T09:20:42;22.10;99.90
75113;DHT22;63692;47.338;8.520;2023-07-24T09:23:09;22.20;99.90
75113;DHT22;63692;47.338;8.520;2023-07-24T09:25:36;22.10;99.90
75113;DHT22;63692;47.338;8.520;2023-07-24T09:28:12;22.20;99.90
75113;DHT22;63692;47.338;8.520;2023-07-24T09:30:39;22.20;99.90
75113;DHT22;63692;47.338;8.520;2023-07-24T09:33:04;22.20;99.90
75113;DHT22;63692;47.338;8.520;2023-07-24T09:40:28;22.20;99.90
75113;DHT22;63692;47.338;8.520;2023-07-24T09:43:02;22.20;99.90
75113;DHT22;63692;47.338;8.520;2023-07-24T09:45:28;22.30;99.90
75113;DHT22;63692;47.338;8.520;2023-07-24T10:01:09;22.40;99.90
75113;DHT22;63692;47.338;8.520;2023-07-24T10:11:01;22.60;99.90
75113;DHT22;63692;47.338;8.520;2023-07-24T10:13:27;22.60;99.90
75113;DHT22;63692;47.338;8.520;2023-07-24T10:20:48;22.90;99.90
75113;DHT22;63692;47.338;8.520;2023-07-24T10:25:52;23.10;99.90
75113;DHT22;63692;47.338;8.520;2023-07-24T10:28:18;23.10;99.90
75113;DHT22;63692;47.338;8.520;2023-07-24T10:43:43;23.00;99.90
75113;DHT22;63692;47.338;8.520;2023-07-24T10:46:09;23.00;99.90
75113;DHT22;63692;47.338;8.520;2023-07-24T10:48:35;23.00;99.90
75113;DHT22;63692;47.338;8.520;2023-07-24T10:51:07;22.90;99.90
75113;DHT22;63692;47.338;8.520;2023-07-24T10:53:37;22.90;99.90
75113;DHT22;63692;47.338;8.520;2023-07-24T10:56:04;22.80;99.90
75113;DHT22;63692;47.338;8.520;2023-07-24T10:58:31;22.90;99.90
75113;DHT22;63692;47.338;8.520;2023-07-24T11:00:57;23.10;99.90
75113;DHT22;63692;47.338;8.520;2023-07-24T11:03:24;23.20;99.90
75113;DHT22;63692;47.338;8.520;2023-07-24T11:05:50;23.20;99.90
75113;DHT22;63692;47.338;8.520;2023-07-24T11:08:17;23.10;99.90
75113;DHT22;63692;47.338;8.520;2023-07-24T11:10:52;23.00;99.90
75113;DHT22;63692;47.338;8.520;2023-07-24T11:13:23;22.60;99.90
75113;DHT22;63692;47.338;8.520;2023-07-24T11:15:50;22.40;99.90
75113;DHT22;63692;47.338;8.520;2023-07-24T11:20:46;22.10;99.90
75113;DHT22;63692;47.338;8.520;2023-07-24T11:23:13;22.00;99.90
75113;DHT22;63692;47.338;8.520;2023-07-24T11:25:39;22.00;99.90
75113;DHT22;63692;47.338;8.520;2023-07-24T11:28:06;22.00;99.90
75113;DHT22;63692;47.338;8.520;2023-07-24T11:30:31;22.00;99.90
75113;DHT22;63692;47.338;8.520;2023-07-24T11:33:02;22.00;99.90
75113;DHT22;63692;47.338;8.520;2023-07-24T11:35:28;21.90;99.90
75113;DHT22;63692;47.338;8.520;2023-07-24T11:37:54;22.00;99.90
75113;DHT22;63692;47.338;8.520;2023-07-24T11:40:20;22.00;99.90
75113;DHT22;63692;47.338;8.520;2023-07-24T11:42:47;21.90;99.90
75113;DHT22;63692;47.338;8.520;2023-07-24T11:45:13;21.90;99.90
75113;DHT22;63692;47.338;8.520;2023-07-24T11:47:47;21.90;99.90
75113;DHT22;63692;47.338;8.520;2023-07-24T11:50:14;21.80;99.90
75113;DHT22;63692;47.338;8.520;2023-07-24T11:52:48;21.70;99.90
75113;DHT22;63692;47.338;8.520;2023-07-24T11:55:19;21.70;99.90
75113;DHT22;63692;47.338;8.520;2023-07-24T11:58:01;21.70;99.90
75113;DHT22;63692;47.338;8.520;2023-07-24T12:05:26;21.90;99.90
75113;DHT22;63692;47.338;8.520;2023-07-24T12:07:54;22.00;99.90
75113;DHT22;63692;47.338;8.520;2023-07-24T12:10:27;22.10;99.90
75113;DHT22;63692;47.338;8.520;2023-07-24T12:12:53;22.10;99.90
75113;DHT22;63692;47.338;8.520;2023-07-24T12:15:19;22.00;99.90
75113;DHT22;63692;47.338;8.520;2023-07-24T12:17:45;21.90;99.90
75113;DHT22;63692;47.338;8.520;2023-07-24T12:20:10;22.00;99.90
75113;DHT22;63692;47.338;8.520;2023-07-24T12:22:37;22.00;99.90
75113;DHT22;63692;47.338;8.520;2023-07-24T12:25:04;22.10;99.90
75113;DHT22;63692;47.338;8.520;2023-07-24T12:27:30;22.00;99.90
75113;DHT22;63692;47.338;8.520;2023-07-24T12:29:56;22.00;99.90
75113;DHT22;63692;47.338;8.520;2023-07-24T12:32:22;21.90;99.90
75113;DHT22;63692;47.338;8.520;2023-07-24T12:37:16;22.00;99.90
75113;DHT22;63692;47.338;8.520;2023-07-24T12:39:41;22.00;99.90
75113;DHT22;63692;47.338;8.520;2023-07-24T12:42:07;22.10;99.90
75113;DHT22;63692;47.338;8.520;2023-07-24T12:44:33;22.10;99.90
75113;DHT22;63692;47.338;8.520;2023-07-24T12:46:58;22.20;99.90
75113;DHT22;63692;47.338;8.520;2023-07-24T12:49:24;22.20;99.90
75113;DHT22;63692;47.338;8.520;2023-07-24T12:51:50;22.30;99.90
75113;DHT22;63692;47.338;8.520;2023-07-24T12:54:16;22.40;99.90
75113;DHT22;63692;47.338;8.520;2023-07-24T12:56:41;22.50;99.90
75113;DHT22;63692;47.338;8.520;2023-07-24T12:59:07;22.50;99.90
75113;DHT22;63692;47.338;8.520;2023-07-24T13:01:32;22.60;99.90
75113;DHT22;63692;47.338;8.520;2023-07-24T13:03:58;22.70;99.90
75113;DHT22;63692;47.338;8.520;2023-07-24T13:06:24;22.70;99.90
75113;DHT22;63692;47.338;8.520;2023-07-24T13:08:50;22.90;99.90
75113;DHT22;63692;47.338;8.520;2023-07-24T13:11:15;22.90;99.90
75113;DHT22;63692;47.338;8.520;2023-07-24T13:13:41;23.00;99.90
75113;DHT22;63692;47.338;8.520;2023-07-24T13:16:07;23.00;99.90
75113;DHT22;63692;47.338;8.520;2023-07-24T13:18:33;23.00;99.90
75113;DHT22;63692;47.338;8.520;2023-07-24T13:20:58;23.10;99.90
75113;DHT22;63692;47.338;8.520;2023-07-24T13:23:24;23.10;99.90
75113;DHT22;63692;47.338;8.520;2023-07-24T13:25:50;23.00;99.90
75113;DHT22;63692;47.338;8.520;2023-07-24T13:28:16;23.10;99.90
75113;DHT22;63692;47.338;8.520;2023-07-24T13:35:44;23.00;99.90
75113;DHT22;63692;47.338;8.520;2023-07-24T13:38:10;23.00;99.90
75113;DHT22;63692;47.338;8.520;2023-07-24T13:40:36;23.00;99.90
75113;DHT22;63692;47.338;8.520;2023-07-24T13:43:04;23.00;99.90
75113;DHT22;63692;47.338;8.520;2023-07-24T13:45:30;23.00;99.90
75113;DHT22;63692;47.338;8.520;2023-07-24T13:47:57;22.90;99.90
75113;DHT22;63692;47.338;8.520;2023-07-24T13:50:33;22.90;99.90
75113;DHT22;63692;47.338;8.520;2023-07-24T13:53:01;23.00;99.90
75113;DHT22;63692;47.338;8.520;2023-07-24T13:55:26;22.90;99.90
75113;DHT22;63692;47.338;8.520;2023-07-24T14:07:44;23.00;99.90
75113;DHT22;63692;47.338;8.520;2023-07-24T14:10:10;23.00;99.90
75113;DHT22;63692;47.338;8.520;2023-07-24T14:12:35;23.00;99.90
75113;DHT22;63692;47.338;8.520;2023-07-24T14:15:01;23.10;99.90
75113;DHT22;63692;47.338;8.520;2023-07-24T14:17:27;23.10;99.90
75113;DHT22;63692;47.338;8.520;2023-07-24T14:19:53;23.10;99.90
75113;DHT22;63692;47.338;8.520;2023-07-24T14:22:19;23.20;99.90
75113;DHT22;63692;47.338;8.520;2023-07-24T14:24:45;23.30;99.90
75113;DHT22;63692;47.338;8.520;2023-07-24T14:27:13;23.30;99.90
75113;DHT22;63692;47.338;8.520;2023-07-24T14:29:38;23.40;99.90
75113;DHT22;63692;47.338;8.520;2023-07-24T14:32:05;23.50;99.90
75113;DHT22;63692;47.338;8.520;2023-07-24T14:34:30;23.60;99.90
75113;DHT22;63692;47.338;8.520;2023-07-24T14:36:56;23.60;99.90
75113;DHT22;63692;47.338;8.520;2023-07-24T14:39:21;23.60;99.90
75113;DHT22;63692;47.338;8.520;2023-07-24T14:41:47;23.50;99.90
75113;DHT22;63692;47.338;8.520;2023-07-24T14:44:13;23.40;99.90
75113;DHT22;63692;47.338;8.520;2023-07-24T14:46:38;23.40;99.90
75113;DHT22;63692;47.338;8.520;2023-07-24T14:49:05;23.40;99.90
75113;DHT22;63692;47.338;8.520;2023-07-24T14:51:30;23.30;99.90
75113;DHT22;63692;47.338;8.520;2023-07-24T14:53:56;23.30;99.90
75113;DHT22;63692;47.338;8.520;2023-07-24T14:56:22;23.30;99.90
75113;DHT22;63692;47.338;8.520;2023-07-24T14:58:50;23.40;99.90
75113;DHT22;63692;47.338;8.520;2023-07-24T15:01:16;23.60;99.90
75113;DHT22;63692;47.338;8.520;2023-07-24T15:03:41;23.50;99.90
75113;DHT22;63692;47.338;8.520;2023-07-24T15:06:07;23.70;99.90
75113;DHT22;63692;47.338;8.520;2023-07-24T15:08:33;24.50;99.90
75113;DHT22;63692;47.338;8.520;2023-07-24T15:11:00;24.90;99.90
75113;DHT22;63692;47.338;8.520;2023-07-24T15:13:25;24.70;99.90
75113;DHT22;63692;47.338;8.520;2023-07-24T15:15:51;24.90;99.90
75113;DHT22;63692;47.338;8.520;2023-07-24T15:18:16;25.70;98.70
75113;DHT22;63692;47.338;8.520;2023-07-24T15:20:42;25.80;96.00
75113;DHT22;63692;47.338;8.520;2023-07-24T15:23:08;25.80;95.80
75113;DHT22;63692;47.338;8.520;2023-07-24T15:25:33;25.10;96.10
75113;DHT22;63692;47.338;8.520;2023-07-24T15:27:59;24.90;96.70
75113;DHT22;63692;47.338;8.520;2023-07-24T15:30:25;25.30;96.90
75113;DHT22;63692;47.338;8.520;2023-07-24T15:32:50;26.00;96.00
75113;DHT22;63692;47.338;8.520;2023-07-24T15:35:16;26.30;94.70
75113;DHT22;63692;47.338;8.520;2023-07-24T15:37:42;26.30;93.90
75113;DHT22;63692;47.338;8.520;2023-07-24T15:40:09;26.00;93.60
75113;DHT22;63692;47.338;8.520;2023-07-24T15:42:35;25.70;94.20
75113;DHT22;63692;47.338;8.520;2023-07-24T15:45:00;25.60;95.30
75113;DHT22;63692;47.338;8.520;2023-07-24T15:49:53;25.20;95.80
75113;DHT22;63692;47.338;8.520;2023-07-24T15:52:19;24.90;95.80
75113;DHT22;63692;47.338;8.520;2023-07-24T15:54:45;24.80;96.40
75113;DHT22;63692;47.338;8.520;2023-07-24T15:57:10;24.60;97.00
75113;DHT22;63692;47.338;8.520;2023-07-24T15:59:36;24.40;97.00
75113;DHT22;63692;47.338;8.520;2023-07-24T16:02:03;24.30;97.70
75113;DHT22;63692;47.338;8.520;2023-07-24T16:04:29;24.00;97.40
75113;DHT22;63692;47.338;8.520;2023-07-24T16:06:54;23.80;98.10
75113;DHT22;63692;47.338;8.520;2023-07-24T16:09:20;23.70;98.30
75113;DHT22;63692;47.338;8.520;2023-07-24T16:11:47;23.60;98.60
75113;DHT22;63692;47.338;8.520;2023-07-24T16:14:13;23.40;99.80
75113;DHT22;63692;47.338;8.520;2023-07-24T16:16:38;23.40;99.90
75113;DHT22;63692;47.338;8.520;2023-07-24T16:19:19;23.30;99.90
75113;DHT22;63692;47.338;8.520;2023-07-24T16:21:47;23.30;99.90
75113;DHT22;63692;47.338;8.520;2023-07-24T16:24:13;23.20;99.90
75113;DHT22;63692;47.338;8.520;2023-07-24T16:26:40;23.10;99.90
75113;DHT22;63692;47.338;8.520;2023-07-24T16:29:06;22.90;99.90
75113;DHT22;63692;47.338;8.520;2023-07-24T16:31:32;22.50;99.90
75113;DHT22;63692;47.338;8.520;2023-07-24T16:33:58;21.90;99.90
75113;DHT22;63692;47.338;8.520;2023-07-24T16:36:23;21.50;99.90
75113;DHT22;63692;47.338;8.520;2023-07-24T16:38:49;21.40;99.90
75113;DHT22;63692;47.338;8.520;2023-07-24T16:41:16;21.20;99.90
75113;DHT22;63692;47.338;8.520;2023-07-24T16:43:42;21.20;99.90
75113;DHT22;63692;47.338;8.520;2023-07-24T16:46:07;21.30;99.90
75113;DHT22;63692;47.338;8.520;2023-07-24T16:48:33;21.30;99.90
75113;DHT22;63692;47.338;8.520;2023-07-24T16:50:59;21.20;99.90
75113;DHT22;63692;47.338;8.520;2023-07-24T16:53:25;21.20;99.90
75113;DHT22;63692;47.338;8.520;2023-07-24T16:55:51;21.20;99.90
75113;DHT22;63692;47.338;8.520;2023-07-24T16:58:17;21.20;99.90
75113;DHT22;63692;47.338;8.520;2023-07-24T17:00:43;21.00;99.90
75113;DHT22;63692;47.338;8.520;2023-07-24T17:03:08;21.00;99.90
75113;DHT22;63692;47.338;8.520;2023-07-24T17:05:34;21.00;99.90
75113;DHT22;63692;47.338;8.520;2023-07-24T17:07:59;20.90;99.90
75113;DHT22;63692;47.338;8.520;2023-07-24T17:10:25;21.00;99.90
75113;DHT22;63692;47.338;8.520;2023-07-24T17:12:51;21.00;99.90
75113;DHT22;63692;47.338;8.520;2023-07-24T17:15:16;21.00;99.90
75113;DHT22;63692;47.338;8.520;2023-07-24T17:17:42;21.10;99.90
75113;DHT22;63692;47.338;8.520;2023-07-24T17:20:09;21.10;99.90
75113;DHT22;63692;47.338;8.520;2023-07-24T17:22:35;21.10;99.90
75113;DHT22;63692;47.338;8.520;2023-07-24T17:25:01;21.00;99.90
75113;DHT22;63692;47.338;8.520;2023-07-24T17:27:27;21.00;99.90
75113;DHT22;63692;47.338;8.520;2023-07-24T17:29:55;21.20;99.90
75113;DHT22;63692;47.338;8.520;2023-07-24T17:32:21;21.30;99.90
75113;DHT22;63692;47.338;8.520;2023-07-24T17:34:48;21.40;99.90
75113;DHT22;63692;47.338;8.520;2023-07-24T17:37:14;21.40;99.90
75113;DHT22;63692;47.338;8.520;2023-07-24T17:39:40;21.40;99.90
75113;DHT22;63692;47.338;8.520;2023-07-24T17:42:06;21.50;99.90
75113;DHT22;63692;47.338;8.520;2023-07-24T17:44:31;21.40;99.90
75113;DHT22;63692;47.338;8.520;2023-07-24T17:46:57;21.30;99.90
75113;DHT22;63692;47.338;8.520;2023-07-24T17:49:23;21.30;99.90
75113;DHT22;63692;47.338;8.520;2023-07-24T17:51:49;21.10;99.90
75113;DHT22;63692;47.338;8.520;2023-07-24T17:54:14;21.10;99.90
75113;DHT22;63692;47.338;8.520;2023-07-24T17:56:40;21.10;99.90
75113;DHT22;63692;47.338;8.520;2023-07-24T17:59:06;21.10;99.90
75113;DHT22;63692;47.338;8.520;2023-07-24T18:01:32;21.10;99.90
75113;DHT22;63692;47.338;8.520;2023-07-24T18:03:59;21.10;99.90
75113;DHT22;63692;47.338;8.520;2023-07-24T18:06:24;21.10;99.90
75113;DHT22;63692;47.338;8.520;2023-07-24T18:08:50;21.00;99.90
75113;DHT22;63692;47.338;8.520;2023-07-24T18:11:16;20.90;99.90
75113;DHT22;63692;47.338;8.520;2023-07-24T18:13:41;20.90;99.90
75113;DHT22;63692;47.338;8.520;2023-07-24T18:16:07;20.90;99.90
75113;DHT22;63692;47.338;8.520;2023-07-24T18:18:32;21.00;99.90
75113;DHT22;63692;47.338;8.520;2023-07-24T18:20:58;21.00;99.90
75113;DHT22;63692;47.338;8.520;2023-07-24T18:23:24;20.90;99.90
75113;DHT22;63692;47.338;8.520;2023-07-24T18:25:49;20.80;99.90
75113;DHT22;63692;47.338;8.520;2023-07-24T18:28:15;20.80;99.90
75113;DHT22;63692;47.338;8.520;2023-07-24T18:30:41;20.70;99.90
75113;DHT22;63692;47.338;8.520;2023-07-24T18:33:07;20.70;99.90
75113;DHT22;63692;47.338;8.520;2023-07-24T18:35:32;20.60;99.90
75113;DHT22;63692;47.338;8.520;2023-07-24T18:37:58;20.60;99.90
75113;DHT22;63692;47.338;8.520;2023-07-24T18:40:24;20.60;99.90
75113;DHT22;63692;47.338;8.520;2023-07-24T18:42:49;20.70;99.90
75113;DHT22;63692;47.338;8.520;2023-07-24T18:45:15;20.80;99.90
75113;DHT22;63692;47.338;8.520;2023-07-24T18:47:41;20.70;99.90
75113;DHT22;63692;47.338;8.520;2023-07-24T18:50:07;20.80;99.90
75113;DHT22;63692;47.338;8.520;2023-07-24T18:52:33;20.70;99.90
75113;DHT22;63692;47.338;8.520;2023-07-24T18:54:58;20.70;99.90
75113;DHT22;63692;47.338;8.520;2023-07-24T18:57:27;20.70;99.90
75113;DHT22;63692;47.338;8.520;2023-07-24T18:59:52;20.60;99.90
75113;DHT22;63692;47.338;8.520;2023-07-24T19:02:18;20.60;99.90
75113;DHT22;63692;47.338;8.520;2023-07-24T19:04:44;20.60;99.90
75113;DHT22;63692;47.338;8.520;2023-07-24T19:07:10;20.60;99.90
75113;DHT22;63692;47.338;8.520;2023-07-24T19:09:35;20.50;99.90
75113;DHT22;63692;47.338;8.520;2023-07-24T19:14:28;20.40;99.90
75113;DHT22;63692;47.338;8.520;2023-07-24T19:16:54;20.30;99.90
75113;DHT22;63692;47.338;8.520;2023-07-24T19:19:19;20.30;99.90
75113;DHT22;63692;47.338;8.520;2023-07-24T19:21:45;20.30;99.90
75113;DHT22;63692;47.338;8.520;2023-07-24T19:24:11;20.30;99.90
75113;DHT22;63692;47.338;8.520;2023-07-24T19:26:37;20.30;99.90
75113;DHT22;63692;47.338;8.520;2023-07-24T19:29:02;20.30;99.90
75113;DHT22;63692;47.338;8.520;2023-07-24T19:31:28;20.20;99.90
75113;DHT22;63692;47.338;8.520;2023-07-24T19:33:53;20.20;99.90
75113;DHT22;63692;47.338;8.520;2023-07-24T19:36:19;20.30;99.90
75113;DHT22;63692;47.338;8.520;2023-07-24T19:38:44;20.30;99.90
75113;DHT22;63692;47.338;8.520;2023-07-24T19:41:10;20.20;99.90
75113;DHT22;63692;47.338;8.520;2023-07-24T19:43:36;20.20;99.90
75113;DHT22;63692;47.338;8.520;2023-07-24T19:46:06;20.10;99.90
75113;DHT22;63692;47.338;8.520;2023-07-24T19:48:31;20.20;99.90
75113;DHT22;63692;47.338;8.520;2023-07-24T19:50:57;20.10;99.90
75113;DHT22;63692;47.338;8.520;2023-07-24T19:53:24;20.10;99.90
75113;DHT22;63692;47.338;8.520;2023-07-24T19:55:52;20.10;99.90
75113;DHT22;63692;47.338;8.520;2023-07-24T19:58:18;20.00;99.90
75113;DHT22;63692;47.338;8.520;2023-07-24T20:00:49;19.90;99.90
75113;DHT22;63692;47.338;8.520;2023-07-24T20:03:15;19.90;99.90
75113;DHT22;63692;47.338;8.520;2023-07-24T20:06:10;20.00;99.90
75113;DHT22;63692;47.338;8.520;2023-07-24T20:08:37;20.00;99.90
75113;DHT22;63692;47.338;8.520;2023-07-24T20:11:04;19.90;99.90
75113;DHT22;63692;47.338;8.520;2023-07-24T20:13:33;19.90;99.90
75113;DHT22;63692;47.338;8.520;2023-07-24T20:15:59;19.90;99.90
75113;DHT22;63692;47.338;8.520;2023-07-24T20:18:25;19.90;99.90
75113;DHT22;63692;47.338;8.520;2023-07-24T20:20:51;19.90;99.90
75113;DHT22;63692;47.338;8.520;2023-07-24T20:23:17;19.90;99.90
75113;DHT22;63692;47.338;8.520;2023-07-24T20:25:45;20.00;99.90
75113;DHT22;63692;47.338;8.520;2023-07-24T20:28:11;19.90;99.90
75113;DHT22;63692;47.338;8.520;2023-07-24T20:30:37;20.00;99.90
75113;DHT22;63692;47.338;8.520;2023-07-24T20:33:03;20.00;99.90
75113;DHT22;63692;47.338;8.520;2023-07-24T20:35:30;20.00;99.90
75113;DHT22;63692;47.338;8.520;2023-07-24T20:37:57;19.90;99.90
75113;DHT22;63692;47.338;8.520;2023-07-24T20:40:23;19.80;99.90
75113;DHT22;63692;47.338;8.520;2023-07-24T20:42:49;19.70;99.90
75113;DHT22;63692;47.338;8.520;2023-07-24T20:45:14;19.70;99.90
75113;DHT22;63692;47.338;8.520;2023-07-24T20:47:40;19.70;99.90
75113;DHT22;63692;47.338;8.520;2023-07-24T20:50:06;19.60;99.90
75113;DHT22;63692;47.338;8.520;2023-07-24T20:54:59;19.70;99.90
